Terminal Aerodrome Forecast
Issued by NWS Wilmington, NC

Home | Current Version | Previous Version | Text Only | Print | Product List | Glossary On
Versions: 1 2 3 4 5 6 7 8 9 10 11 12 13 14
419
FTUS42 KILM 191120
TAFFLO
TAF
KFLO 191120Z 1912/2012 26004KT P6SM SCT100
     FM191800 23006KT P6SM VCTS FEW035CB BKN050
     FM192300 VRB03KT P6SM SCT250
      TEMPO 2008/2012 00000KT 3SM BR=

USA.gov is the U.S. government's official web portal to all federal, state and local government web resources and services.